createdAt,value
2022-12-18T13:28:48.841Z,15.82
2022-12-18T13:33:56.259Z,10.90
2022-12-18T13:38:46.744Z,3.65
2022-12-18T13:42:57.436Z,0.62
2022-12-18T13:45:41.271Z,-0.93
2022-12-18T13:48:15.673Z,-2.23
2022-12-18T13:50:42.971Z,-2.33
2022-12-18T13:54:03.903Z,-2.75
2022-12-18T13:56:34.461Z,-3.02
2022-12-18T13:59:07.012Z,-3.42
2022-12-18T14:01:33.916Z,-3.57
2022-12-18T14:04:11.206Z,-3.55
2022-12-18T14:06:39.763Z,-3.60
2022-12-18T14:09:11.665Z,-3.70
2022-12-18T14:11:39.844Z,-3.38
2022-12-18T14:14:08.382Z,-3.32
2022-12-18T14:16:35.113Z,-3.22
2022-12-18T14:19:14.365Z,-3.36
2022-12-18T14:21:51.081Z,-3.73
2022-12-18T14:24:21.264Z,-3.86
2022-12-18T14:26:48.762Z,-3.73
2022-12-18T14:29:20.029Z,-3.77
2022-12-18T14:32:04.688Z,-4.07
2022-12-18T14:34:32.293Z,-3.88
2022-12-18T14:36:58.986Z,-4.03
2022-12-18T14:39:26.501Z,-3.89
2022-12-18T14:41:54.098Z,-3.83
2022-12-18T14:44:22.260Z,-3.82
2022-12-18T14:46:50.382Z,-3.61
2022-12-18T14:49:22.176Z,-3.73
2022-12-18T14:51:56.422Z,-3.81
2022-12-18T14:54:24.532Z,-3.77
2022-12-18T14:56:57.591Z,-4.03
2022-12-18T14:59:25.536Z,-4.14
2022-12-18T15:01:59.497Z,-4.34
2022-12-18T15:04:28.807Z,-4.66
2022-12-18T15:07:07.667Z,-4.67
2022-12-18T15:09:34.290Z,-4.90
2022-12-18T15:12:02.179Z,-4.86
2022-12-18T15:14:42.691Z,-4.93
2022-12-18T15:17:20.335Z,-4.86
2022-12-18T15:19:49.376Z,-4.82
2022-12-18T15:22:20.739Z,-4.81
2022-12-18T15:24:48.959Z,-4.68
2022-12-18T15:27:23.219Z,-4.55
2022-12-18T15:30:01.940Z,-4.50
2022-12-18T15:32:30.649Z,-4.51
2022-12-18T15:35:10.898Z,-4.56
2022-12-18T15:37:40.896Z,-4.50
2022-12-18T15:40:15.642Z,-4.47
2022-12-18T15:43:03.141Z,-4.44
2022-12-18T15:45:29.752Z,-4.37
2022-12-18T15:47:56.295Z,-4.34
2022-12-18T15:50:23.259Z,-4.59
2022-12-18T15:52:51.171Z,-4.78
2022-12-18T15:55:41.779Z,-4.82
2022-12-18T15:58:09.355Z,-4.57
2022-12-18T16:00:36.551Z,-4.51
2022-12-18T16:03:03.892Z,-4.42
2022-12-18T16:05:30.851Z,-4.30
2022-12-18T16:07:57.460Z,-4.26
2022-12-18T16:10:25.123Z,-4.22
2022-12-18T16:12:54.108Z,-4.23
2022-12-18T16:15:24.456Z,-4.15
2022-12-18T16:17:52.961Z,-4.15
2022-12-18T16:20:21.619Z,-4.15
2022-12-18T16:22:48.791Z,-4.05
2022-12-18T16:25:23.422Z,-4.14
2022-12-18T16:27:52.924Z,-4.07
2022-12-18T16:30:21.307Z,-4.08
2022-12-18T16:32:47.990Z,-4.11
2022-12-18T16:35:16.833Z,-4.32
2022-12-18T16:37:44.377Z,-4.37
2022-12-18T16:40:12.190Z,-4.25
2022-12-18T16:42:39.581Z,-4.26
2022-12-18T16:45:07.407Z,-4.21
2022-12-18T16:47:34.185Z,-4.18
2022-12-18T16:50:02.298Z,-4.09
2022-12-18T16:52:30.463Z,-4.01
2022-12-18T16:54:56.997Z,-4.03
2022-12-18T16:57:25.544Z,-4.02
2022-12-18T16:59:52.372Z,-3.94
2022-12-18T17:02:24.299Z,-3.96
2022-12-18T17:04:58.798Z,-3.96
2022-12-18T17:07:26.068Z,-3.95
2022-12-18T17:09:54.323Z,-3.97
2022-12-18T17:12:21.380Z,-3.91
2022-12-18T17:14:47.803Z,-3.94
2022-12-18T17:17:23.162Z,-3.91
2022-12-18T17:19:50.757Z,-3.90
2022-12-18T17:22:17.237Z,-3.89
2022-12-18T17:24:43.731Z,-3.85
2022-12-18T17:27:11.558Z,-3.86
2022-12-18T17:29:41.261Z,-3.90
2022-12-18T17:32:11.789Z,-3.87
2022-12-18T17:34:40.768Z,-3.77
2022-12-18T17:37:08.556Z,-3.80
2022-12-18T17:39:35.096Z,-3.75
2022-12-18T17:42:02.620Z,-3.78
2022-12-18T17:44:29.197Z,-3.85
2022-12-18T17:47:04.157Z,-3.77
2022-12-18T17:49:30.980Z,-3.73
2022-12-18T17:51:58.636Z,-3.69
2022-12-18T17:54:25.174Z,-3.68
2022-12-18T17:56:52.836Z,-3.65
2022-12-18T17:59:19.397Z,-3.62
2022-12-18T18:01:46.059Z,-3.74
2022-12-18T18:04:13.228Z,-3.80
2022-12-18T18:06:39.769Z,-3.97
2022-12-18T18:09:16.421Z,-4.02
2022-12-18T18:12:03.485Z,-4.08
2022-12-18T18:14:31.517Z,-3.96
2022-12-18T18:17:04.323Z,-3.85
2022-12-18T18:19:33.451Z,-3.81
2022-12-18T18:21:59.904Z,-3.81
2022-12-18T18:24:28.111Z,-3.81
2022-12-18T18:27:01.643Z,-3.76
2022-12-18T18:29:30.708Z,-3.77
2022-12-18T18:31:57.392Z,-3.71
2022-12-18T18:34:25.245Z,-3.75
2022-12-18T18:36:52.095Z,-3.97
2022-12-18T18:39:18.648Z,-3.96
2022-12-18T18:41:47.893Z,-4.07
2022-12-18T18:44:15.457Z,-4.24
2022-12-18T18:46:41.876Z,-4.38
2022-12-18T18:49:08.300Z,-4.41
2022-12-18T18:51:35.441Z,-4.42
2022-12-18T18:54:02.238Z,-4.38
2022-12-18T18:59:15.308Z,-4.34
2022-12-18T19:01:42.011Z,-4.40
2022-12-18T19:04:08.677Z,-4.24
2022-12-18T19:06:35.176Z,-4.32
2022-12-18T19:09:04.278Z,-4.24
2022-12-18T19:11:49.260Z,-4.17
2022-12-18T19:14:15.997Z,-4.06
2022-12-18T19:16:43.122Z,-4.06
2022-12-18T19:19:11.586Z,-4.00
2022-12-18T19:21:38.318Z,-3.94
2022-12-18T19:24:05.058Z,-3.87
2022-12-18T19:26:31.738Z,-3.86
2022-12-18T19:29:02.289Z,-3.80
2022-12-18T19:31:35.058Z,-3.74
2022-12-18T19:34:03.040Z,-3.74
2022-12-18T19:36:29.923Z,-3.74
2022-12-18T19:39:00.186Z,-3.72
2022-12-18T19:41:29.175Z,-3.91
2022-12-18T19:43:58.389Z,-3.95
2022-12-18T19:46:25.003Z,-3.88
2022-12-18T19:48:51.790Z,-3.81
2022-12-18T19:51:20.053Z,-3.75
2022-12-18T19:53:47.021Z,-4.00
2022-12-18T19:56:15.420Z,-4.05
2022-12-18T19:58:42.356Z,-3.93
2022-12-18T20:01:11.811Z,-3.85
2022-12-18T20:03:40.761Z,-3.72
2022-12-18T20:06:09.401Z,-3.74
2022-12-18T20:08:36.561Z,-3.76
2022-12-18T20:11:03.062Z,-3.70
2022-12-18T20:13:29.949Z,-3.59
2022-12-18T20:15:56.679Z,-3.57
2022-12-18T20:18:23.534Z,-3.59
2022-12-18T20:20:50.159Z,-3.74
2022-12-18T20:23:18.408Z,-3.70
2022-12-18T20:25:46.468Z,-3.75
2022-12-18T20:28:13.195Z,-3.61
2022-12-18T20:30:39.790Z,-3.34
2022-12-18T20:33:06.400Z,-3.35
2022-12-18T20:35:33.161Z,-3.32
2022-12-18T20:38:00.045Z,-3.42
2022-12-18T20:40:27.715Z,-3.44
2022-12-18T20:42:54.764Z,-3.58
2022-12-18T20:45:22.318Z,-3.69
2022-12-18T20:47:49.331Z,-3.57
2022-12-18T20:50:15.917Z,-3.51
2022-12-18T20:52:42.455Z,-3.62
2022-12-18T20:55:09.099Z,-3.85
2022-12-18T20:57:35.816Z,-3.69
2022-12-18T21:00:06.834Z,-3.64
2022-12-18T21:02:33.656Z,-3.59
2022-12-18T21:05:00.294Z,-3.65
2022-12-18T21:07:27.481Z,-3.49
2022-12-18T21:09:54.117Z,-3.43
2022-12-18T21:12:44.093Z,-3.34
2022-12-18T21:15:14.738Z,-3.31
2022-12-18T21:17:44.737Z,-3.21
2022-12-18T21:20:17.995Z,-3.20
2022-12-18T21:22:46.674Z,-3.18
2022-12-18T21:25:12.987Z,-3.17
2022-12-18T21:27:39.328Z,-3.12
2022-12-18T21:30:06.082Z,-3.08
2022-12-18T21:32:33.655Z,-3.06
2022-12-18T21:35:00.136Z,-3.04
2022-12-18T21:37:26.657Z,-2.96
2022-12-18T21:39:53.087Z,-2.93
2022-12-18T21:42:38.456Z,-2.91
2022-12-18T21:45:04.978Z,-2.86
2022-12-18T21:47:31.616Z,-2.87
2022-12-18T21:49:58.060Z,-2.90
2022-12-18T21:52:31.249Z,-2.85
2022-12-18T21:55:06.151Z,-2.78
2022-12-18T21:57:34.734Z,-2.80
2022-12-18T22:00:02.297Z,-2.80
2022-12-18T22:02:38.594Z,-2.81
2022-12-18T22:05:05.241Z,-2.83
2022-12-18T22:07:31.684Z,-2.81
2022-12-18T22:09:58.181Z,-2.90
2022-12-18T22:12:35.777Z,-2.83
2022-12-18T22:15:10.031Z,-2.87
2022-12-18T22:17:37.596Z,-2.88
2022-12-18T22:20:04.075Z,-2.84
2022-12-18T22:22:30.633Z,-2.82
2022-12-18T22:24:57.076Z,-2.79
2022-12-18T22:27:23.443Z,-2.85
2022-12-18T22:30:05.171Z,-2.83
2022-12-18T22:32:38.082Z,-2.79
2022-12-18T22:35:09.465Z,-2.79
2022-12-18T22:37:37.152Z,-2.74
2022-12-18T22:40:04.400Z,-2.67
2022-12-18T22:42:31.386Z,-2.64
2022-12-18T22:44:57.741Z,-2.60
2022-12-18T22:47:29.237Z,-2.57
2022-12-18T22:49:56.447Z,-2.53
2022-12-18T22:52:23.434Z,-2.49
2022-12-18T22:54:51.366Z,-2.48
2022-12-18T22:57:19.860Z,-2.41
2022-12-18T22:59:46.212Z,-2.36
2022-12-18T23:02:12.687Z,-2.30
2022-12-18T23:04:39.728Z,-2.30
2022-12-18T23:07:07.404Z,-2.25
2022-12-18T23:09:33.908Z,-2.24
2022-12-18T23:12:00.299Z,-2.23
2022-12-18T23:14:27.290Z,-2.20
2022-12-18T23:16:53.595Z,-2.21
2022-12-18T23:19:20.083Z,-2.13
2022-12-18T23:21:46.480Z,-2.08
2022-12-18T23:24:12.872Z,-2.08
2022-12-18T23:26:39.226Z,-2.01
2022-12-18T23:29:05.857Z,-1.97
2022-12-18T23:31:33.713Z,-1.90
2022-12-18T23:34:00.916Z,-1.90
2022-12-18T23:36:27.666Z,-1.82
2022-12-18T23:38:57.315Z,-1.77
2022-12-18T23:41:24.902Z,-1.74
2022-12-18T23:43:52.452Z,-1.73
2022-12-18T23:46:23.496Z,-1.70
2022-12-18T23:48:50.767Z,-1.69
2022-12-18T23:51:18.110Z,-1.67
2022-12-18T23:53:45.349Z,-1.65
2022-12-18T23:56:12.514Z,-1.57
2022-12-18T23:58:42.603Z,-1.55
